Time;durP1;ratioP1;P1;durP2;ratioP2;P2;SDS_P1;SDS_P2;PMS_P1;PMS_P2;Temp;Humidity;BMP_temperature;BMP_pressure;BME280_temperature;BME280_humidity;BME280_pressure;Samples;Min_cycle;Max_cycle;Signal;HPM_P1;HPM_P2
2023/04/24 00:01:39;;;;;;;10.50;5.30;;;;;;;11.94;68.52;94919.28;5001807;28;20231;-72
2023/04/24 00:04:06;;;;;;;8.80;5.10;;;;;;;11.93;69.21;94925.56;5004908;28;20222;-72
2023/04/24 00:06:36;;;;;;;7.60;4.67;;;;;;;11.93;65.86;94920.31;5003914;28;20234;-72
2023/04/24 00:09:05;;;;;;;10.43;5.23;;;;;;;12.03;66.66;94920.69;4998599;28;20234;-71
2023/04/24 00:11:30;;;;;;;8.03;4.93;;;;;;;12.04;66.03;94919.66;5002266;28;20249;-71
2023/04/24 00:13:56;;;;;;;12.20;5.00;;;;;;;11.97;66.30;94910.19;5009821;28;20242;-71
2023/04/24 00:16:22;;;;;;;7.47;4.90;;;;;;;11.74;65.50;94907.25;5005033;28;20223;-71
2023/04/24 00:18:47;;;;;;;9.63;5.00;;;;;;;11.61;67.74;94909.91;5025467;28;21080;-72
2023/04/24 00:21:14;;;;;;;10.50;5.30;;;;;;;11.61;66.71;94915.91;5009315;28;20230;-71
2023/04/24 00:23:40;;;;;;;12.00;5.00;;;;;;;11.46;69.01;94908.28;5005465;28;20231;-72
2023/04/24 00:26:05;;;;;;;9.93;4.97;;;;;;;11.35;69.18;94900.25;5008553;28;20242;-71
2023/04/24 00:28:31;;;;;;;11.97;5.20;;;;;;;11.30;69.70;94903.50;5002000;28;20260;-71
2023/04/24 00:30:57;;;;;;;9.90;5.00;;;;;;;11.32;70.28;94895.44;5015399;28;20229;-72
2023/04/24 00:33:22;;;;;;;10.27;5.07;;;;;;;11.48;69.84;94905.47;5027707;28;20261;-71
2023/04/24 00:35:48;;;;;;;9.27;4.93;;;;;;;11.65;69.43;94904.03;4986264;28;20239;-71
2023/04/24 00:38:13;;;;;;;8.93;4.90;;;;;;;11.53;69.83;94903.84;5003880;28;20273;-72
2023/04/24 00:40:39;;;;;;;9.13;4.83;;;;;;;11.58;69.10;94910.31;4986897;28;20288;-72
2023/04/24 00:43:04;;;;;;;10.97;4.93;;;;;;;11.58;70.37;94905.06;4998719;28;20656;-72
2023/04/24 00:45:31;;;;;;;8.40;5.37;;;;;;;11.70;69.46;94898.97;4984368;28;20230;-71
2023/04/24 00:47:56;;;;;;;12.40;5.30;;;;;;;11.57;69.16;94909.50;5006694;28;20234;-70
2023/04/24 00:50:22;;;;;;;9.47;5.10;;;;;;;11.58;69.60;94907.69;5001374;28;20779;-71
2023/04/24 00:52:47;;;;;;;10.27;5.20;;;;;;;11.71;69.15;94907.66;4999342;28;20227;-72
2023/04/24 00:55:12;;;;;;;12.97;5.53;;;;;;;11.45;69.67;94903.25;4983393;28;20230;-71
2023/04/24 00:57:38;;;;;;;13.10;5.07;;;;;;;11.31;68.31;94893.81;4983078;28;20234;-71
2023/04/24 01:00:05;;;;;;;13.50;5.53;;;;;;;11.58;67.45;94905.88;5009060;28;20226;-71
2023/04/24 01:02:34;;;;;;;10.77;5.50;;;;;;;11.57;67.71;94903.44;5014885;28;20238;-72
2023/04/24 01:05:00;;;;;;;10.40;5.30;;;;;;;11.74;69.44;94905.44;5004371;28;20238;-71
2023/04/24 01:07:27;;;;;;;12.27;5.40;;;;;;;11.76;69.33;94906.03;4981312;28;20256;-71
2023/04/24 01:09:52;;;;;;;8.67;5.23;;;;;;;11.77;70.02;94893.75;5015483;28;20688;-71
2023/04/24 01:12:18;;;;;;;9.70;5.23;;;;;;;11.71;71.08;94889.31;5008561;28;20977;-71
2023/04/24 01:14:44;;;;;;;10.07;5.53;;;;;;;11.61;72.36;94894.94;5003375;28;20261;-72
2023/04/24 01:17:10;;;;;;;8.83;5.13;;;;;;;11.34;71.19;94896.81;5004724;28;20839;-72
2023/04/24 01:19:37;;;;;;;8.97;4.83;;;;;;;11.18;71.96;94885.97;5016227;28;20293;-71
2023/04/24 01:22:02;;;;;;;9.97;5.20;;;;;;;11.06;71.69;94887.59;4989367;28;20233;-72
2023/04/24 01:24:28;;;;;;;10.10;5.03;;;;;;;11.11;71.65;94885.97;5008640;28;20254;-71
2023/04/24 01:26:53;;;;;;;9.60;5.40;;;;;;;11.08;71.78;94882.97;5006994;28;20235;-71
2023/04/24 01:29:19;;;;;;;8.40;5.23;;;;;;;10.93;72.59;94871.91;5012521;28;20276;-71
2023/04/24 01:31:45;;;;;;;13.00;5.50;;;;;;;11.03;72.39;94873.13;5024004;28;20364;-71
2023/04/24 01:34:10;;;;;;;8.70;5.70;;;;;;;11.02;72.38;94871.50;5001516;28;20239;-71
2023/04/24 01:36:36;;;;;;;10.70;5.10;;;;;;;10.88;72.74;94869.09;4999347;28;20269;-70
2023/04/24 01:39:02;;;;;;;11.37;5.70;;;;;;;10.92;73.77;94870.28;5015428;28;20324;-73
2023/04/24 01:41:28;;;;;;;11.40;6.00;;;;;;;10.97;72.81;94865.25;5001653;28;20288;-71
2023/04/24 01:43:53;;;;;;;12.50;5.80;;;;;;;11.01;73.61;94869.88;4998685;28;20629;-71
2023/04/24 01:46:18;;;;;;;11.03;6.10;;;;;;;10.90;73.74;94861.84;5001698;28;20235;-71
2023/04/24 01:48:45;;;;;;;11.93;6.00;;;;;;;11.14;72.51;94867.25;5016488;28;20626;-71
2023/04/24 01:51:10;;;;;;;9.20;5.73;;;;;;;10.98;74.42;94864.25;4985940;28;20227;-71
2023/04/24 01:53:35;;;;;;;10.13;5.70;;;;;;;10.91;73.42;94861.66;5000320;28;20272;-71
2023/04/24 01:56:01;;;;;;;9.60;5.73;;;;;;;10.56;74.02;94858.41;4977908;28;20242;-71
2023/04/24 01:58:27;;;;;;;11.87;5.60;;;;;;;10.46;74.38;94854.59;5022123;28;20884;-71
2023/04/24 02:00:52;;;;;;;11.53;5.80;;;;;;;10.46;73.89;94863.22;5014652;28;20223;-72
2023/04/24 02:03:17;;;;;;;10.53;6.10;;;;;;;10.50;74.73;94864.47;4983139;28;20286;-71
2023/04/24 02:05:46;;;;;;;11.10;5.73;;;;;;;10.61;75.60;94861.25;5006096;28;20227;-72
2023/04/24 02:08:11;;;;;;;11.70;5.97;;;;;;;10.38;75.82;94858.22;4980874;28;20231;-71
2023/04/24 02:10:37;;;;;;;12.10;5.90;;;;;;;10.58;75.19;94861.63;4997737;28;20308;-71
2023/04/24 02:13:02;;;;;;;12.43;6.20;;;;;;;10.74;74.29;94856.00;5021982;28;20227;-71
2023/04/24 02:15:28;;;;;;;9.70;5.87;;;;;;;10.69;75.11;94853.19;5024909;28;20315;-71
2023/04/24 02:17:53;;;;;;;10.50;5.90;;;;;;;10.60;74.87;94851.75;4977359;28;20317;-71
2023/04/24 02:20:19;;;;;;;10.07;5.90;;;;;;;10.52;75.03;94849.34;5002419;28;20593;-71
2023/04/24 02:22:44;;;;;;;12.33;6.10;;;;;;;10.61;75.04;94857.81;5011853;28;20616;-70
2023/04/24 02:25:10;;;;;;;11.07;6.63;;;;;;;10.50;76.05;94851.38;5001850;28;20252;-71
2023/04/24 02:27:35;;;;;;;12.40;6.03;;;;;;;10.60;75.72;94851.75;4983431;28;20333;-71
2023/04/24 02:30:01;;;;;;;11.80;6.30;;;;;;;10.63;75.38;94861.84;5004558;28;20247;-71
2023/04/24 02:32:26;;;;;;;12.03;6.53;;;;;;;10.71;75.09;94858.22;5003364;28;20312;-71
2023/04/24 02:34:52;;;;;;;11.47;6.30;;;;;;;10.57;75.77;94852.19;4997158;28;20315;-71
2023/04/24 02:37:17;;;;;;;12.43;6.10;;;;;;;10.41;75.84;94843.91;5000132;28;20343;-71
2023/04/24 02:39:43;;;;;;;12.50;6.60;;;;;;;10.41;76.12;94843.91;5019881;28;20242;-71
2023/04/24 02:42:08;;;;;;;12.03;6.40;;;;;;;10.26;77.01;94827.59;5013216;28;20230;-71
2023/04/24 02:44:33;;;;;;;10.60;6.40;;;;;;;10.09;77.91;94830.56;4997242;28;20238;-71
2023/04/24 02:46:59;;;;;;;10.67;6.40;;;;;;;10.03;79.35;94835.78;5011791;28;20234;-71
2023/04/24 02:49:25;;;;;;;12.67;6.37;;;;;;;9.92;78.13;94825.88;4999259;28;20234;-71
2023/04/24 02:51:51;;;;;;;12.50;6.60;;;;;;;10.03;78.14;94822.72;5011293;28;20238;-72
2023/04/24 02:54:16;;;;;;;10.50;6.50;;;;;;;10.31;78.34;94823.38;4992669;28;20235;-71
2023/04/24 02:56:42;;;;;;;12.87;6.60;;;;;;;10.27;78.05;94824.78;4989872;28;20751;-71
2023/04/24 02:59:07;;;;;;;11.73;6.70;;;;;;;10.08;79.77;94828.94;4981866;28;20234;-71
2023/04/24 03:01:33;;;;;;;15.07;7.00;;;;;;;10.15;78.75;94828.97;5021432;28;20238;-71
2023/04/24 03:03:59;;;;;;;16.70;7.00;;;;;;;10.23;78.51;94836.66;5000338;28;20243;-72
2023/04/24 03:06:24;;;;;;;12.40;6.87;;;;;;;10.06;78.73;94832.75;5021844;28;20716;-72
2023/04/24 03:08:49;;;;;;;15.53;7.03;;;;;;;10.22;78.02;94837.66;4977423;28;20328;-73
2023/04/24 03:11:15;;;;;;;13.53;7.27;;;;;;;10.28;78.19;94839.47;4982148;28;20231;-71
2023/04/24 03:13:41;;;;;;;15.13;6.87;;;;;;;10.25;78.26;94846.91;5013301;28;20234;-71
2023/04/24 03:16:06;;;;;;;11.63;7.00;;;;;;;10.23;78.74;94843.69;4996165;28;20230;-71
2023/04/24 03:18:32;;;;;;;15.67;7.20;;;;;;;10.31;77.67;94833.84;5006126;28;20234;-71
2023/04/24 03:20:57;;;;;;;13.87;6.63;;;;;;;10.43;78.10;94836.69;5002021;28;20236;-71
2023/04/24 03:23:23;;;;;;;16.20;7.60;;;;;;;10.46;78.93;94844.91;5018636;28;20719;-71
2023/04/24 03:25:48;;;;;;;12.70;6.97;;;;;;;10.52;78.24;94843.31;5008554;28;20229;-71
2023/04/24 03:28:14;;;;;;;15.87;7.13;;;;;;;10.53;78.25;94844.94;4984265;28;20741;-71
2023/04/24 03:30:39;;;;;;;14.30;7.17;;;;;;;10.53;78.80;94845.72;5002884;28;20285;-71
2023/04/24 03:33:05;;;;;;;14.27;7.13;;;;;;;10.57;78.30;94849.56;4987925;28;20304;-71
2023/04/24 03:35:30;;;;;;;14.63;6.90;;;;;;;10.53;78.20;94842.31;5003055;28;20230;-71
2023/04/24 03:37:56;;;;;;;13.23;6.90;;;;;;;10.54;78.73;94847.34;5014573;28;20234;-71
2023/04/24 03:40:21;;;;;;;12.30;7.07;;;;;;;10.52;77.47;94846.75;4998766;28;20231;-69
2023/04/24 03:42:47;;;;;;;12.63;7.23;;;;;;;10.52;77.18;94851.16;5016674;28;20235;-71
2023/04/24 03:45:12;;;;;;;12.53;7.07;;;;;;;10.49;77.97;94843.72;4983682;28;20227;-70
2023/04/24 03:47:38;;;;;;;15.53;6.90;;;;;;;10.41;77.53;94841.31;4990454;28;20270;-71
2023/04/24 03:50:04;;;;;;;18.87;7.27;;;;;;;10.38;79.06;94839.09;4979080;28;20246;-70
2023/04/24 03:52:29;;;;;;;12.83;6.93;;;;;;;10.21;80.12;94849.13;5009668;28;20253;-71
2023/04/24 03:54:55;;;;;;;12.03;7.13;;;;;;;10.25;79.88;94845.09;5017675;28;20234;-71
2023/04/24 03:57:20;;;;;;;17.23;7.43;;;;;;;10.26;80.90;94838.06;4990853;28;21020;-70
2023/04/24 03:59:46;;;;;;;15.77;7.73;;;;;;;10.27;80.04;94843.09;4998966;28;20694;-72
2023/04/24 04:02:11;;;;;;;15.73;7.50;;;;;;;10.41;79.24;94842.09;5001268;28;20252;-71
2023/04/24 04:04:37;;;;;;;15.90;7.43;;;;;;;10.56;79.68;94845.31;5020160;28;20229;-72
2023/04/24 04:07:02;;;;;;;15.00;7.17;;;;;;;10.63;78.31;94838.28;5003694;28;20308;-71
2023/04/24 04:09:28;;;;;;;10.50;5.97;;;;;;;10.52;73.32;94848.56;5019238;28;20231;-72
2023/04/24 04:11:54;;;;;;;13.50;6.10;;;;;;;10.71;75.45;94847.75;4997789;28;20227;-72
2023/04/24 04:14:19;;;;;;;11.93;6.00;;;;;;;10.65;73.58;94849.34;5008518;28;20621;-72
2023/04/24 04:16:45;;;;;;;12.37;6.20;;;;;;;10.76;72.77;94847.94;5005857;28;20531;-72
2023/04/24 04:19:10;;;;;;;10.53;6.00;;;;;;;10.63;73.92;94848.75;5019899;28;20725;-71
2023/04/24 04:21:36;;;;;;;12.43;5.50;;;;;;;10.90;71.44;94851.34;4986076;28;20309;-72
2023/04/24 04:24:01;;;;;;;11.47;5.63;;;;;;;10.89;71.29;94847.16;5012394;28;20231;-72
2023/04/24 04:26:27;;;;;;;12.73;5.67;;;;;;;10.61;71.35;94852.56;5003292;28;20238;-72
2023/04/24 04:28:52;;;;;;;11.63;5.30;;;;;;;10.60;71.16;94849.16;5012800;28;20245;-72
2023/04/24 04:31:19;;;;;;;10.03;5.27;;;;;;;10.62;71.65;94857.63;4996585;28;20269;-72
2023/04/24 04:33:45;;;;;;;10.50;5.17;;;;;;;10.93;70.51;94859.63;4998488;28;20235;-73
2023/04/24 04:36:10;;;;;;;10.03;5.30;;;;;;;10.89;70.48;94857.63;5012317;28;20245;-73
2023/04/24 04:38:36;;;;;;;12.30;5.83;;;;;;;10.62;70.64;94865.47;5012148;28;20309;-73
2023/04/24 04:41:02;;;;;;;9.90;5.80;;;;;;;10.84;70.21;94866.88;5013554;28;20230;-72
2023/04/24 04:43:28;;;;;;;12.47;5.40;;;;;;;10.82;70.23;94868.88;5000710;28;20250;-72
2023/04/24 04:45:54;;;;;;;12.70;5.80;;;;;;;11.13;70.29;94875.31;5004758;28;20231;-73
2023/04/24 04:48:20;;;;;;;10.00;5.50;;;;;;;11.11;69.13;94880.75;5000097;28;20238;-72
2023/04/24 04:50:45;;;;;;;12.43;5.70;;;;;;;11.20;69.69;94882.13;5002927;28;20280;-72
2023/04/24 04:53:11;;;;;;;14.43;5.70;;;;;;;11.29;69.06;94873.06;5002050;28;20234;-72
2023/04/24 04:55:37;;;;;;;10.33;5.80;;;;;;;11.32;69.03;94874.47;5026626;28;21012;-72
2023/04/24 04:58:02;;;;;;;9.37;5.67;;;;;;;11.29;69.83;94883.56;4992809;28;20623;-72
2023/04/24 05:00:33;;;;;;;15.70;6.40;;;;;;;11.40;69.87;94888.16;5016182;28;20318;-72
2023/04/24 05:02:59;;;;;;;10.67;5.90;;;;;;;11.57;69.91;94887.72;5014358;28;20227;-72
2023/04/24 05:05:24;;;;;;;12.07;5.93;;;;;;;11.81;68.53;94890.50;4999582;28;20234;-72
2023/04/24 05:07:49;;;;;;;13.73;7.10;;;;;;;11.97;65.83;94890.00;5018114;28;20693;-73
2023/04/24 05:10:15;;;;;;;12.20;7.00;;;;;;;12.04;65.31;94884.72;5014141;28;20285;-73
2023/04/24 05:12:45;;;;;;;12.00;6.60;;;;;;;11.91;66.53;94884.81;5003321;28;20235;-73
2023/04/24 05:15:11;;;;;;;16.00;7.40;;;;;;;11.79;67.51;94886.47;4987105;28;20234;-73
2023/04/24 05:17:36;;;;;;;15.47;7.00;;;;;;;11.94;68.17;94887.81;5014778;28;20919;-71
2023/04/24 05:20:05;;;;;;;21.17;7.37;;;;;;;11.89;68.72;94882.38;5016361;28;20239;-71
2023/04/24 05:22:31;;;;;;;19.23;8.27;;;;;;;11.79;68.75;94876.78;5015543;28;20322;-71
2023/04/24 05:24:57;;;;;;;23.10;9.87;;;;;;;11.97;68.83;94873.47;5024310;28;20267;-71
2023/04/24 05:27:22;;;;;;;25.80;10.30;;;;;;;12.07;68.84;94879.06;4998501;28;20322;-72
2023/04/24 05:29:48;;;;;;;22.03;10.17;;;;;;;12.25;67.91;94878.38;5015154;28;20734;-72
2023/04/24 05:32:13;;;;;;;20.83;8.97;;;;;;;12.18;66.31;94877.63;5024915;28;20238;-71
2023/04/24 05:34:38;;;;;;;23.23;9.70;;;;;;;11.86;68.12;94876.75;5014700;28;20227;-72
2023/04/24 05:37:08;;;;;;;16.23;9.30;;;;;;;12.05;68.10;94881.91;5002715;28;20233;-72
2023/04/24 05:39:33;;;;;;;15.83;7.80;;;;;;;12.02;67.39;94876.28;5000762;28;20231;-70
2023/04/24 05:42:01;;;;;;;14.23;8.10;;;;;;;12.05;66.41;94874.06;4996194;28;20699;-72
2023/04/24 05:44:26;;;;;;;15.40;7.80;;;;;;;12.34;66.17;94879.75;5015195;28;20238;-71
2023/04/24 05:46:52;;;;;;;18.80;8.50;;;;;;;12.18;66.43;94883.66;4983614;28;20234;-71
2023/04/24 05:49:17;;;;;;;15.53;7.70;;;;;;;12.35;66.22;94882.16;4994312;28;20695;-71
2023/04/24 05:51:42;;;;;;;18.83;7.67;;;;;;;12.66;65.03;94891.84;5018213;28;20225;-72
2023/04/24 05:54:08;;;;;;;17.73;8.03;;;;;;;12.80;65.35;94888.13;5017570;28;20296;-71
2023/04/24 05:56:34;;;;;;;17.83;7.87;;;;;;;12.90;64.93;94885.03;5018272;28;20230;-72
2023/04/24 05:58:59;;;;;;;17.43;8.13;;;;;;;12.74;63.88;94881.09;5014996;28;20695;-72
2023/04/24 06:01:25;;;;;;;22.60;9.30;;;;;;;12.75;64.63;94872.97;4983317;28;20258;-71
2023/04/24 06:03:50;;;;;;;19.83;8.20;;;;;;;12.93;64.40;94880.13;5000952;28;20251;-72
2023/04/24 06:06:16;;;;;;;17.00;8.77;;;;;;;12.78;65.38;94883.06;5000484;28;20237;-72
2023/04/24 06:08:43;;;;;;;19.53;8.50;;;;;;;12.88;63.72;94887.84;5016076;28;20250;-72
2023/04/24 06:11:10;;;;;;;19.20;8.93;;;;;;;12.86;63.82;94882.00;5010582;28;20282;-74
2023/04/24 06:13:35;;;;;;;17.13;8.80;;;;;;;12.87;64.38;94882.81;5001457;28;20233;-71
2023/04/24 06:16:03;;;;;;;19.77;8.77;;;;;;;12.98;64.53;94880.28;5014775;28;20230;-73
2023/04/24 06:18:28;;;;;;;17.40;8.77;;;;;;;13.12;64.12;94881.00;5015107;28;20227;-73
2023/04/24 06:20:55;;;;;;;19.33;9.60;;;;;;;13.58;63.45;94878.75;5016582;28;20634;-73
2023/04/24 06:23:20;;;;;;;19.17;9.00;;;;;;;13.83;63.04;94884.72;5006644;28;20262;-72
2023/04/24 06:25:46;;;;;;;16.93;9.50;;;;;;;13.83;61.11;94889.16;5024446;28;20269;-71
2023/04/24 06:28:12;;;;;;;17.07;9.23;;;;;;;13.79;62.98;94883.56;5010247;28;20241;-71
2023/04/24 06:30:37;;;;;;;15.83;8.57;;;;;;;14.14;62.06;94879.28;4998392;28;20221;-72
2023/04/24 06:33:03;;;;;;;16.53;9.10;;;;;;;14.25;61.54;94888.25;5015146;28;20676;-72
2023/04/24 06:35:28;;;;;;;15.83;9.30;;;;;;;14.23;60.61;94878.97;5012849;28;20313;-71
2023/04/24 06:37:56;;;;;;;19.67;9.53;;;;;;;14.03;62.31;94884.50;4998981;28;20287;-71
2023/04/24 06:40:21;;;;;;;21.07;9.40;;;;;;;14.03;61.49;94887.13;4985877;28;20226;-72
2023/04/24 06:42:47;;;;;;;21.27;8.63;;;;;;;14.17;62.18;94888.56;5006684;28;20229;-72
2023/04/24 06:45:12;;;;;;;17.67;9.00;;;;;;;14.04;61.04;94891.38;5016457;28;20230;-71
2023/04/24 06:47:38;;;;;;;18.13;9.33;;;;;;;14.00;61.70;94893.63;4990758;28;20304;-71
2023/04/24 06:50:04;;;;;;;16.17;8.80;;;;;;;14.49;60.98;94891.81;5004398;28;20257;-71
2023/04/24 06:52:32;;;;;;;17.37;8.93;;;;;;;14.77;60.40;94890.19;5027874;28;20236;-71
2023/04/24 06:55:02;;;;;;;19.03;9.47;;;;;;;14.81;59.64;94888.69;5000545;28;20230;-71
2023/04/24 06:57:27;;;;;;;16.90;9.23;;;;;;;15.12;59.29;94878.88;5026191;28;20231;-72
2023/04/24 06:59:53;;;;;;;16.60;9.27;;;;;;;15.26;57.80;94881.06;5019039;28;20229;-72
2023/04/24 07:02:18;;;;;;;17.70;9.93;;;;;;;15.09;58.93;94877.53;5004057;28;20289;-71
2023/04/24 07:04:45;;;;;;;17.57;9.40;;;;;;;15.03;59.20;94873.16;5008185;28;20241;-71
2023/04/24 07:07:12;;;;;;;17.90;9.30;;;;;;;14.90;60.22;94876.00;5020338;28;20227;-73
2023/04/24 07:09:42;;;;;;;16.67;9.83;;;;;;;14.98;60.24;94870.38;4992906;28;20321;-70
2023/04/24 07:12:08;;;;;;;15.40;8.97;;;;;;;15.22;57.79;94868.56;5015302;28;20332;-71
2023/04/24 07:14:33;;;;;;;19.20;9.33;;;;;;;15.16;59.59;94874.78;4999043;28;20230;-71
2023/04/24 07:16:59;;;;;;;18.53;9.33;;;;;;;15.26;58.72;94872.38;4993538;28;20578;-73
2023/04/24 07:19:24;;;;;;;19.47;9.97;;;;;;;15.67;56.64;94864.31;5019910;28;20234;-72
2023/04/24 07:21:50;;;;;;;22.30;9.60;;;;;;;16.09;55.78;94870.22;5017378;28;20238;-72
2023/04/24 07:24:15;;;;;;;15.70;9.30;;;;;;;15.92;55.62;94864.88;5002498;28;20249;-72
2023/04/24 07:26:41;;;;;;;15.63;8.80;;;;;;;15.83;57.62;94863.63;5018224;28;20265;-71
2023/04/24 07:29:07;;;;;;;17.97;8.70;;;;;;;15.99;56.94;94868.19;5005225;28;20238;-72
2023/04/24 07:31:32;;;;;;;20.53;9.80;;;;;;;16.01;56.93;94862.66;5002384;28;20314;-72
2023/04/24 07:33:58;;;;;;;17.10;8.97;;;;;;;16.56;56.13;94852.34;5009095;28;20302;-72
2023/04/24 07:36:25;;;;;;;24.17;10.10;;;;;;;16.88;54.79;94850.81;5025879;28;20234;-71
2023/04/24 07:38:51;;;;;;;23.00;10.37;;;;;;;16.85;53.42;94856.56;5001380;28;21055;-72
2023/04/24 07:41:16;;;;;;;20.17;9.83;;;;;;;16.27;55.26;94861.28;5003742;28;20234;-71
2023/04/24 07:43:42;;;;;;;15.57;9.23;;;;;;;16.65;55.68;94857.00;5021326;28;20241;-72
2023/04/24 07:46:08;;;;;;;19.77;9.50;;;;;;;16.87;54.29;94851.03;5004796;28;20296;-72
2023/04/24 07:48:33;;;;;;;17.60;8.90;;;;;;;17.00;53.78;94854.19;5006335;28;20246;-72
2023/04/24 07:50:58;;;;;;;18.23;9.20;;;;;;;16.73;53.76;94843.41;5016556;28;20226;-71
2023/04/24 07:53:24;;;;;;;18.40;8.70;;;;;;;17.02;53.99;94841.50;5008062;28;20292;-71
2023/04/24 07:55:50;;;;;;;14.73;8.57;;;;;;;17.25;53.76;94843.97;5014152;28;20284;-73
2023/04/24 07:58:15;;;;;;;13.17;8.10;;;;;;;16.78;53.40;94838.22;4985200;28;20466;-73
2023/04/24 08:00:41;;;;;;;11.13;7.60;;;;;;;17.30;53.74;94845.88;4999039;28;20226;-72
2023/04/24 08:03:06;;;;;;;14.23;8.10;;;;;;;16.87;53.13;94832.53;5017923;28;20241;-72
2023/04/24 08:05:31;;;;;;;18.10;7.60;;;;;;;17.65;53.36;94837.69;5027390;28;20676;-74
2023/04/24 08:07:57;;;;;;;12.87;7.73;;;;;;;17.75;52.76;94838.59;5007033;28;20779;-72
2023/04/24 08:10:23;;;;;;;12.07;7.93;;;;;;;17.59;51.10;94839.44;4998914;28;20222;-70
2023/04/24 08:12:48;;;;;;;11.33;7.23;;;;;;;17.05;51.83;94833.06;4988695;28;20231;-71
2023/04/24 08:15:14;;;;;;;11.10;6.93;;;;;;;17.35;51.49;94830.91;5026575;28;20237;-71
2023/04/24 08:17:40;;;;;;;10.77;7.00;;;;;;;17.59;51.10;94828.88;5004617;28;20246;-71
2023/04/24 08:20:09;;;;;;;13.80;6.63;;;;;;;17.99;51.07;94833.84;4988134;28;20222;-71
2023/04/24 08:22:35;;;;;;;16.33;7.07;;;;;;;17.90;50.20;94824.75;4985565;28;20230;-71
2023/04/24 08:25:01;;;;;;;9.83;6.43;;;;;;;18.36;49.74;94821.56;4993722;28;20704;-71
2023/04/24 08:27:26;;;;;;;11.83;6.83;;;;;;;18.64;49.54;94829.28;5020097;28;20231;-71
2023/04/24 08:29:53;;;;;;;13.57;6.77;;;;;;;18.86;48.31;94815.97;5026117;28;20222;-71
2023/04/24 08:32:19;;;;;;;11.40;5.93;;;;;;;18.21;48.73;94812.66;5004347;28;20321;-71
2023/04/24 08:34:45;;;;;;;19.90;7.40;;;;;;;18.67;48.49;94818.19;5017405;28;20237;-71
2023/04/24 08:37:10;;;;;;;14.10;6.60;;;;;;;18.21;48.30;94818.75;5004702;28;20239;-71
2023/04/24 08:39:36;;;;;;;10.00;6.10;;;;;;;17.90;49.88;94814.16;5018264;28;20230;-72
2023/04/24 08:42:05;;;;;;;12.40;6.33;;;;;;;18.05;48.50;94803.75;5020994;28;20639;-72
2023/04/24 08:44:32;;;;;;;11.27;6.33;;;;;;;18.31;49.22;94802.16;5019772;28;20226;-71
2023/04/24 08:46:57;;;;;;;10.67;6.20;;;;;;;18.59;48.37;94797.44;5008115;28;20222;-71
2023/04/24 08:49:23;;;;;;;10.57;6.67;;;;;;;18.24;47.95;94791.78;4991063;28;20762;-72
2023/04/24 08:51:49;;;;;;;12.80;6.37;;;;;;;18.61;48.08;94792.66;5007545;28;20458;-72
2023/04/24 08:54:15;;;;;;;11.73;6.30;;;;;;;18.65;48.04;94796.41;5017864;28;20929;-72
2023/04/24 08:56:40;;;;;;;13.23;6.20;;;;;;;19.17;49.85;94795.75;4998386;28;20226;-72
2023/04/24 08:59:06;;;;;;;10.27;6.70;;;;;;;18.57;47.02;94790.78;5003944;28;20274;-72
2023/04/24 09:01:32;;;;;;;12.83;6.63;;;;;;;18.98;47.38;94789.25;5000054;28;20726;-72
2023/04/24 09:03:58;;;;;;;10.67;5.73;;;;;;;19.34;46.67;94772.50;4987506;28;20333;-72
2023/04/24 09:06:23;;;;;;;10.23;6.07;;;;;;;19.38;46.17;94776.28;5000834;28;20337;-72
2023/04/24 09:08:49;;;;;;;10.40;6.27;;;;;;;18.71;46.78;94779.50;5005291;28;20711;-73
2023/04/24 09:11:16;;;;;;;11.87;6.63;;;;;;;19.10;46.81;94771.31;4997033;28;20313;-74
2023/04/24 09:13:41;;;;;;;11.97;6.43;;;;;;;19.56;45.79;94764.44;5001666;28;20235;-71
2023/04/24 09:16:09;;;;;;;11.93;6.20;;;;;;;19.55;45.53;94762.81;4985960;28;20224;-72
2023/04/24 09:18:35;;;;;;;13.90;6.83;;;;;;;19.68;45.75;94765.03;5024494;28;20227;-73
2023/04/24 09:21:06;;;;;;;9.40;6.00;;;;;;;19.72;45.10;94756.28;4997662;28;20240;-72
2023/04/24 09:23:32;;;;;;;11.80;6.03;;;;;;;19.34;45.82;94760.06;5015990;28;20338;-70
2023/04/24 09:26:00;;;;;;;11.40;6.50;;;;;;;19.81;45.65;94754.72;5015097;28;20281;-72
2023/04/24 09:28:46;;;;;;;12.57;6.40;;;;;;;19.63;44.31;94746.41;4999469;28;20238;-73
2023/04/24 09:31:18;;;;;;;17.67;6.00;;;;;;;19.61;45.78;94738.69;5022511;28;20767;-72
2023/04/24 09:34:05;;;;;;;14.30;6.20;;;;;;;19.70;44.93;94737.16;5009916;28;20244;-73
2023/04/24 09:36:37;;;;;;;11.77;6.27;;;;;;;19.53;45.27;94731.22;5016022;28;20246;-72
2023/04/24 09:39:05;;;;;;;9.90;5.90;;;;;;;19.97;45.79;94727.13;4999965;28;20630;-72
2023/04/24 09:41:31;;;;;;;11.17;6.27;;;;;;;20.00;44.46;94731.91;5002398;28;20231;-72
2023/04/24 09:43:59;;;;;;;12.67;6.10;;;;;;;20.33;43.77;94735.19;5023397;28;20781;-73
2023/04/24 09:46:36;;;;;;;11.80;5.60;;;;;;;20.18;43.80;94725.28;4997464;28;20284;-72
2023/04/24 09:49:15;;;;;;;10.97;6.03;;;;;;;20.29;43.53;94726.94;5025760;28;20233;-71
2023/04/24 09:51:41;;;;;;;13.60;6.17;;;;;;;20.04;42.94;94732.19;5013127;28;20241;-72
2023/04/24 09:54:16;;;;;;;9.60;5.60;;;;;;;20.16;43.29;94735.38;5017607;28;20239;-72
2023/04/24 09:56:45;;;;;;;8.60;5.70;;;;;;;20.62;42.17;94729.09;5016835;28;20233;-71
2023/04/24 09:59:11;;;;;;;10.00;5.70;;;;;;;20.94;41.54;94723.50;4985940;28;20234;-72
2023/04/24 10:01:38;;;;;;;14.60;5.80;;;;;;;20.60;41.13;94719.78;5014940;28;20641;-72
2023/04/24 10:04:03;;;;;;;14.00;6.17;;;;;;;20.90;42.50;94713.66;4999579;28;20235;-73
2023/04/24 10:06:35;;;;;;;18.17;6.87;;;;;;;21.22;42.94;94706.16;5001126;28;20296;-73
2023/04/24 10:09:01;;;;;;;9.07;5.90;;;;;;;21.33;41.67;94705.84;5015197;28;20284;-73
2023/04/24 10:11:27;;;;;;;9.17;6.00;;;;;;;21.21;39.81;94702.69;5002309;28;20695;-72
2023/04/24 10:13:52;;;;;;;9.37;5.90;;;;;;;20.69;40.47;94696.91;4999783;28;20291;-72
2023/04/24 10:16:19;;;;;;;11.67;5.70;;;;;;;20.44;41.68;94688.94;5001207;28;20230;-72
2023/04/24 10:18:44;;;;;;;13.63;5.83;;;;;;;20.63;40.92;94685.50;5024900;28;20225;-72
2023/04/24 10:21:10;;;;;;;8.70;5.63;;;;;;;21.17;41.81;94688.34;5000397;28;20226;-71
2023/04/24 10:23:35;;;;;;;10.67;5.43;;;;;;;21.52;38.96;94689.28;5015898;28;20245;-72
2023/04/24 10:26:01;;;;;;;10.80;5.80;;;;;;;21.26;40.06;94678.72;4989417;28;20223;-72
2023/04/24 10:28:26;;;;;;;13.77;5.80;;;;;;;21.74;41.28;94679.84;5005941;28;20720;-72
2023/04/24 10:30:54;;;;;;;13.20;5.87;;;;;;;22.01;39.70;94684.81;5024055;28;20265;-72
2023/04/24 10:33:19;;;;;;;8.47;5.60;;;;;;;22.30;40.26;94676.88;4979594;28;20231;-71
2023/04/24 10:35:47;;;;;;;9.57;5.57;;;;;;;21.79;39.21;94673.69;5013749;28;20231;-72
2023/04/24 10:38:13;;;;;;;9.33;5.50;;;;;;;21.03;40.13;94663.34;5006059;28;20727;-71
2023/04/24 10:40:38;;;;;;;12.73;5.70;;;;;;;21.56;39.48;94669.03;4996662;28;20326;-71
2023/04/24 10:43:11;;;;;;;9.50;5.87;;;;;;;21.96;39.98;94669.63;4998097;28;20233;-71
2023/04/24 10:45:37;;;;;;;14.10;5.77;;;;;;;21.36;39.44;94662.72;5023409;28;20265;-71
2023/04/24 10:48:04;;;;;;;10.13;5.77;;;;;;;21.31;40.89;94657.41;4998970;28;20241;-72
2023/04/24 10:50:41;;;;;;;13.13;6.00;;;;;;;21.35;41.00;94647.03;5001738;28;20226;-72
2023/04/24 10:53:09;;;;;;;11.73;6.10;;;;;;;21.29;39.50;94648.91;4992250;28;20889;-73
2023/04/24 10:55:43;;;;;;;13.83;5.80;;;;;;;21.16;39.70;94643.38;5012284;28;20233;-73
2023/04/24 10:58:09;;;;;;;10.40;5.53;;;;;;;21.08;39.42;94633.28;5016933;28;20242;-73
2023/04/24 11:00:36;;;;;;;9.07;5.70;;;;;;;20.85;41.04;94633.84;5007728;28;20231;-71
2023/04/24 11:03:03;;;;;;;11.00;5.50;;;;;;;20.79;41.43;94630.41;5000902;28;20248;-72
2023/04/24 11:05:51;;;;;;;10.47;5.33;;;;;;;20.50;41.23;94626.72;5003120;28;20227;-72
2023/04/24 11:08:36;;;;;;;9.97;5.80;;;;;;;20.43;42.82;94634.97;5017297;28;20723;-73
2023/04/24 11:11:11;;;;;;;8.83;5.23;;;;;;;20.18;41.35;94629.63;5018169;28;20245;-72
2023/04/24 11:13:55;;;;;;;8.40;5.23;;;;;;;20.21;43.07;94631.75;5012310;28;20234;-74
2023/04/24 11:16:23;;;;;;;10.40;6.00;;;;;;;20.12;44.13;94625.38;5012872;28;20321;-72
2023/04/24 11:18:54;;;;;;;11.37;5.70;;;;;;;19.94;46.15;94621.38;5013146;28;20230;-72
2023/04/24 11:21:20;;;;;;;12.03;5.80;;;;;;;19.82;48.31;94625.34;5000098;28;20231;-70
2023/04/24 11:23:46;;;;;;;16.87;5.80;;;;;;;19.64;45.38;94628.50;5007644;28;20233;-71